createdAt,value
2018-08-19T00:00:25.449Z,18.65
2018-08-19T00:01:32.157Z,18.69
2018-08-19T00:02:37.924Z,18.52
2018-08-19T00:03:43.920Z,18.48
2018-08-19T00:04:49.272Z,18.56
2018-08-19T00:05:54.632Z,18.53
2018-08-19T00:07:00.440Z,18.11
2018-08-19T00:08:06.021Z,17.96
2018-08-19T00:09:11.215Z,17.99
2018-08-19T00:10:16.540Z,18.26
2018-08-19T00:11:22.685Z,18.55
2018-08-19T00:12:27.772Z,18.41
2018-08-19T00:13:33.196Z,17.79
2018-08-19T00:14:39.518Z,17.49
2018-08-19T00:15:49.915Z,17.54
2018-08-19T00:16:55.425Z,17.61
2018-08-19T00:18:04.532Z,17.62
2018-08-19T00:19:10.064Z,17.63
2018-08-19T00:20:15.511Z,17.65
2018-08-19T00:21:22.697Z,17.64
2018-08-19T00:22:28.867Z,17.65
2018-08-19T00:23:34.335Z,17.67
2018-08-19T00:24:40.409Z,17.68
2018-08-19T00:25:47.926Z,17.68
2018-08-19T00:26:53.616Z,17.82
2018-08-19T00:27:59.995Z,18.01
2018-08-19T00:29:05.805Z,18.11
2018-08-19T00:30:12.873Z,18.00
2018-08-19T00:31:20.085Z,18.04
2018-08-19T00:32:26.942Z,17.99
2018-08-19T00:33:34.293Z,17.87
2018-08-19T00:34:40.888Z,17.80
2018-08-19T00:35:49.445Z,17.90
2018-08-19T00:36:56.738Z,17.82
2018-08-19T00:38:04.921Z,17.70
2018-08-19T00:39:12.009Z,17.76
2018-08-19T00:40:19.753Z,17.71
2018-08-19T00:41:26.808Z,17.56
2018-08-19T00:42:34.052Z,17.53
2018-08-19T00:43:42.260Z,17.59
2018-08-19T00:44:51.367Z,17.55
2018-08-19T00:45:59.679Z,17.69
2018-08-19T00:47:07.700Z,17.63
2018-08-19T00:48:14.828Z,17.54
2018-08-19T00:49:22.122Z,17.51
2018-08-19T00:50:28.920Z,17.44
2018-08-19T00:51:36.833Z,17.38
2018-08-19T00:52:43.965Z,17.40
2018-08-19T00:53:51.477Z,17.42
2018-08-19T00:54:59.064Z,17.41
2018-08-19T00:56:05.974Z,17.38
2018-08-19T00:57:14.051Z,17.32
2018-08-19T00:58:20.998Z,17.35
2018-08-19T00:59:28.263Z,17.44
2018-08-19T01:00:35.313Z,17.45
2018-08-19T01:01:40.829Z,17.48
2018-08-19T01:02:48.386Z,17.54
2018-08-19T01:03:56.077Z,17.64
2018-08-19T01:05:03.047Z,17.59
2018-08-19T01:06:11.376Z,17.42
2018-08-19T01:07:20.452Z,17.29
2018-08-19T01:08:28.882Z,17.27
2018-08-19T01:09:46.380Z,17.24
2018-08-19T01:10:53.377Z,17.23
2018-08-19T01:12:01.388Z,17.09
2018-08-19T01:13:10.022Z,16.99
2018-08-19T01:14:16.998Z,17.03
2018-08-19T01:15:23.980Z,17.06
2018-08-19T01:16:31.285Z,17.30
2018-08-19T01:17:37.926Z,17.22
2018-08-19T01:18:49.439Z,17.25
2018-08-19T01:19:56.641Z,17.30
2018-08-19T01:21:04.861Z,17.22
2018-08-19T01:22:11.685Z,17.17
2018-08-19T01:23:18.081Z,17.18
2018-08-19T01:24:24.122Z,17.22
2018-08-19T01:25:30.876Z,17.20
2018-08-19T01:26:37.566Z,17.13
2018-08-19T01:27:44.511Z,17.15
2018-08-19T01:28:51.339Z,17.22
2018-08-19T01:29:57.391Z,17.13
2018-08-19T01:31:03.589Z,17.10
2018-08-19T01:32:09.458Z,17.08
2018-08-19T01:33:16.031Z,17.01
2018-08-19T01:34:22.165Z,16.95
2018-08-19T01:35:28.134Z,16.89
2018-08-19T01:36:36.180Z,16.89
2018-08-19T01:37:43.447Z,16.87
2018-08-19T01:38:50.557Z,16.88
2018-08-19T01:39:56.870Z,16.85
2018-08-19T01:41:03.153Z,16.76
2018-08-19T01:42:09.371Z,16.74
2018-08-19T01:43:16.220Z,16.85
2018-08-19T01:44:23.440Z,16.90
2018-08-19T01:45:29.798Z,16.95
2018-08-19T01:46:35.953Z,16.99
2018-08-19T01:47:41.593Z,16.95
2018-08-19T01:48:46.927Z,16.77
2018-08-19T01:49:53.942Z,16.73
2018-08-19T01:51:00.052Z,16.75
2018-08-19T01:52:05.714Z,16.71
2018-08-19T01:53:11.843Z,16.66
2018-08-19T01:54:17.711Z,16.67
2018-08-19T01:55:23.980Z,16.70
2018-08-19T01:56:30.591Z,16.70
2018-08-19T01:57:36.545Z,16.71
2018-08-19T01:58:42.344Z,16.72
2018-08-19T01:59:57.402Z,16.70
2018-08-19T02:01:04.466Z,16.70
2018-08-19T02:02:11.097Z,16.73
2018-08-19T02:03:17.011Z,16.77
2018-08-19T02:04:24.847Z,16.87
2018-08-19T02:05:30.711Z,17.01
2018-08-19T02:06:41.364Z,16.96
2018-08-19T02:07:46.739Z,16.98
2018-08-19T02:08:58.936Z,16.84
2018-08-19T02:10:04.606Z,16.72
2018-08-19T02:11:10.485Z,16.76
2018-08-19T02:12:16.059Z,16.81
2018-08-19T02:13:21.669Z,16.91
2018-08-19T02:14:34.305Z,16.91
2018-08-19T02:15:40.413Z,16.80
2018-08-19T02:16:46.085Z,16.66
2018-08-19T02:17:53.415Z,16.63
2018-08-19T02:19:02.835Z,16.56
2018-08-19T02:20:08.446Z,16.57
2018-08-19T02:21:14.440Z,16.63
2018-08-19T02:22:20.517Z,16.65
2018-08-19T02:23:26.969Z,16.72
2018-08-19T02:24:33.085Z,16.78
2018-08-19T02:25:40.046Z,16.74
2018-08-19T02:26:45.432Z,16.56
2018-08-19T02:27:51.564Z,16.58
2018-08-19T02:28:58.244Z,16.52
2018-08-19T02:30:04.033Z,16.49
2018-08-19T02:31:10.797Z,16.49
2018-08-19T02:32:16.580Z,16.46
2018-08-19T02:33:22.600Z,16.35
2018-08-19T02:34:28.178Z,16.31
2018-08-19T02:35:39.913Z,16.26
2018-08-19T02:36:46.228Z,16.19
2018-08-19T02:37:52.511Z,16.20
2018-08-19T02:38:58.494Z,16.16
2018-08-19T02:40:04.739Z,16.16
2018-08-19T02:41:10.017Z,16.14
2018-08-19T02:42:16.960Z,16.09
2018-08-19T02:43:22.413Z,16.18
2018-08-19T02:44:28.525Z,16.29
2018-08-19T02:45:34.680Z,16.34
2018-08-19T02:46:40.704Z,16.48
2018-08-19T02:47:46.849Z,16.37
2018-08-19T02:48:53.662Z,16.14
2018-08-19T02:50:00.628Z,16.16
2018-08-19T02:51:06.406Z,16.02
2018-08-19T02:52:12.129Z,16.14
2018-08-19T02:53:18.329Z,16.15
2018-08-19T02:54:24.304Z,16.19
2018-08-19T02:55:30.609Z,16.25
2018-08-19T02:56:36.093Z,16.05
2018-08-19T02:57:42.196Z,16.04
2018-08-19T02:58:48.308Z,15.62
2018-08-19T02:59:54.407Z,15.80
2018-08-19T03:01:00.547Z,15.87
2018-08-19T03:02:05.735Z,15.94
2018-08-19T03:03:11.698Z,15.81
2018-08-19T03:04:17.812Z,15.82
2018-08-19T03:05:23.928Z,15.74
2018-08-19T03:06:30.762Z,15.81
2018-08-19T03:07:36.776Z,15.76
2018-08-19T03:08:41.960Z,15.76
2018-08-19T03:09:53.460Z,15.79
2018-08-19T03:11:03.580Z,15.82
2018-08-19T03:12:08.742Z,15.76
2018-08-19T03:13:14.825Z,15.86
2018-08-19T03:14:21.460Z,15.73
2018-08-19T03:15:27.347Z,15.87
2018-08-19T03:16:32.472Z,15.80
2018-08-19T03:17:38.334Z,15.82
2018-08-19T03:18:44.473Z,15.60
2018-08-19T03:19:49.880Z,15.76
2018-08-19T03:20:55.989Z,15.82
2018-08-19T03:22:02.334Z,15.85
2018-08-19T03:23:08.015Z,15.93
2018-08-19T03:24:14.080Z,15.97
2018-08-19T03:25:20.289Z,15.79
2018-08-19T03:26:26.086Z,15.85
2018-08-19T03:27:31.393Z,15.87
2018-08-19T03:28:37.380Z,15.80
2018-08-19T03:29:43.261Z,15.78
2018-08-19T03:30:48.709Z,15.88
2018-08-19T03:31:54.496Z,15.97
2018-08-19T03:33:00.538Z,15.93
2018-08-19T03:34:06.232Z,15.85
2018-08-19T03:35:12.073Z,15.88
2018-08-19T03:36:18.824Z,15.65
2018-08-19T03:37:24.916Z,15.73
2018-08-19T03:38:31.079Z,15.70
2018-08-19T03:39:37.068Z,15.69
2018-08-19T03:40:49.446Z,15.69
2018-08-19T03:41:55.629Z,15.70
2018-08-19T03:43:01.912Z,15.64
2018-08-19T03:44:09.988Z,15.64
2018-08-19T03:45:15.829Z,15.65
2018-08-19T03:46:21.910Z,15.57
2018-08-19T03:47:27.275Z,15.55
2018-08-19T03:48:33.011Z,15.46
2018-08-19T03:49:38.943Z,15.43
2018-08-19T03:50:45.084Z,15.56
2018-08-19T03:51:50.850Z,15.63
2018-08-19T03:52:57.991Z,15.59
2018-08-19T03:54:03.986Z,15.59
2018-08-19T03:55:10.076Z,15.63
2018-08-19T03:56:16.064Z,15.50
2018-08-19T03:57:22.012Z,15.61
2018-08-19T03:58:33.248Z,15.71
2018-08-19T03:59:39.606Z,15.71
2018-08-19T04:00:45.556Z,15.80
2018-08-19T04:01:54.340Z,15.69
2018-08-19T04:03:00.034Z,15.61
2018-08-19T04:04:05.739Z,15.66
2018-08-19T04:05:11.752Z,15.69
2018-08-19T04:06:17.145Z,15.62
2018-08-19T04:07:23.927Z,15.62
2018-08-19T04:08:29.521Z,15.70
2018-08-19T04:09:35.576Z,15.61
2018-08-19T04:10:41.958Z,15.56
2018-08-19T04:11:47.414Z,15.46
2018-08-19T04:12:53.455Z,15.30
2018-08-19T04:14:00.172Z,15.23
2018-08-19T04:15:05.372Z,15.22
2018-08-19T04:16:11.349Z,15.29
2018-08-19T04:17:17.432Z,15.29
2018-08-19T04:18:23.361Z,15.27
2018-08-19T04:19:29.379Z,15.17
2018-08-19T04:20:36.525Z,15.21
2018-08-19T04:21:42.527Z,15.33
2018-08-19T04:22:48.559Z,15.30
2018-08-19T04:23:54.555Z,15.23
2018-08-19T04:25:00.870Z,15.23
2018-08-19T04:26:06.959Z,15.22
2018-08-19T04:27:12.992Z,15.24
2018-08-19T04:28:19.164Z,15.24
2018-08-19T04:29:25.285Z,15.31
2018-08-19T04:30:31.284Z,15.31
2018-08-19T04:31:37.264Z,15.30
2018-08-19T04:32:43.188Z,15.32
2018-08-19T04:33:49.176Z,15.26
2018-08-19T04:34:55.190Z,15.50
2018-08-19T04:36:00.960Z,15.68
2018-08-19T04:37:06.993Z,15.79
2018-08-19T04:38:13.056Z,15.71
2018-08-19T04:39:18.772Z,15.47
2018-08-19T04:40:24.845Z,15.18
2018-08-19T04:41:30.934Z,15.31
2018-08-19T04:42:37.091Z,15.41
2018-08-19T04:43:42.873Z,15.17
2018-08-19T04:44:48.968Z,15.12
2018-08-19T04:45:55.252Z,15.31
2018-08-19T04:47:01.301Z,15.21
2018-08-19T04:48:07.378Z,15.32
2018-08-19T04:49:12.577Z,15.35
2018-08-19T04:50:18.995Z,15.35
2018-08-19T04:51:24.273Z,15.44
2018-08-19T04:52:34.493Z,15.43
2018-08-19T04:53:40.583Z,15.67
2018-08-19T04:54:47.268Z,15.61
2018-08-19T04:55:53.256Z,15.67
2018-08-19T04:56:59.288Z,15.82
2018-08-19T04:58:04.628Z,15.86
2018-08-19T04:59:10.738Z,15.82
2018-08-19T05:00:16.455Z,15.73
2018-08-19T05:01:22.504Z,15.68
2018-08-19T05:02:28.302Z,15.63
2018-08-19T05:03:34.488Z,15.65
2018-08-19T05:04:40.501Z,15.81
2018-08-19T05:05:46.503Z,15.79
2018-08-19T05:06:52.604Z,15.72
2018-08-19T05:07:59.022Z,15.74
2018-08-19T05:09:04.345Z,15.89
2018-08-19T05:10:10.425Z,15.91
2018-08-19T05:11:16.430Z,15.99
2018-08-19T05:12:22.587Z,16.11
2018-08-19T05:13:28.601Z,16.02
2018-08-19T05:14:35.315Z,16.04
2018-08-19T05:15:45.361Z,16.08
2018-08-19T05:16:51.464Z,16.12
2018-08-19T05:17:57.593Z,16.14
2018-08-19T05:19:03.694Z,16.13
2018-08-19T05:20:08.751Z,16.32
2018-08-19T05:21:14.887Z,16.39
2018-08-19T05:22:20.246Z,16.42
2018-08-19T05:23:26.019Z,16.49
2018-08-19T05:24:32.072Z,16.56
2018-08-19T05:25:37.139Z,16.57
2018-08-19T05:26:48.627Z,16.66
2018-08-19T05:27:54.371Z,16.78
2018-08-19T05:28:59.504Z,16.84
2018-08-19T05:30:04.879Z,16.95
2018-08-19T05:31:10.794Z,17.19
2018-08-19T05:32:16.866Z,17.29
2018-08-19T05:33:23.012Z,17.35
2018-08-19T05:34:28.941Z,17.36
2018-08-19T05:35:35.099Z,17.39
2018-08-19T05:36:50.881Z,17.45
2018-08-19T05:38:04.745Z,17.57
2018-08-19T05:39:10.942Z,17.66
2018-08-19T05:40:16.949Z,17.77
2018-08-19T05:41:23.058Z,17.82
2018-08-19T05:42:28.680Z,17.87
2018-08-19T05:43:34.718Z,17.93
2018-08-19T05:44:40.852Z,18.04
2018-08-19T05:45:46.630Z,18.11
2018-08-19T05:46:52.546Z,18.13
2018-08-19T05:47:57.841Z,18.15
2018-08-19T05:49:03.253Z,18.19
2018-08-19T05:50:08.885Z,18.27
2018-08-19T05:51:14.941Z,18.32
2018-08-19T05:52:21.036Z,18.34
2018-08-19T05:53:26.444Z,18.39
2018-08-19T05:54:31.602Z,18.45
2018-08-19T05:55:38.013Z,18.63
2018-08-19T05:56:43.564Z,18.64
2018-08-19T05:57:49.508Z,18.67
2018-08-19T05:58:55.631Z,18.65
2018-08-19T06:00:03.025Z,18.70
2018-08-19T06:01:08.414Z,18.91
2018-08-19T06:02:14.353Z,18.81
2018-08-19T06:03:20.394Z,18.78
2018-08-19T06:04:26.471Z,18.74
2018-08-19T06:05:32.201Z,18.76
2018-08-19T06:06:38.193Z,18.77
2018-08-19T06:07:44.738Z,18.88
2018-08-19T06:08:50.217Z,18.84
2018-08-19T06:09:56.217Z,18.86
2018-08-19T06:11:02.327Z,18.92
2018-08-19T06:12:07.611Z,18.95
2018-08-19T06:13:12.996Z,18.99
2018-08-19T06:14:20.004Z,19.16
2018-08-19T06:15:25.393Z,19.12
2018-08-19T06:16:37.433Z,19.31
2018-08-19T06:17:43.595Z,19.24
2018-08-19T06:18:49.644Z,19.32
2018-08-19T06:19:55.766Z,19.39
2018-08-19T06:21:01.863Z,19.31
2018-08-19T06:22:07.550Z,19.27
2018-08-19T06:23:13.775Z,19.27
2018-08-19T06:24:19.096Z,19.36
2018-08-19T06:25:24.824Z,19.33
2018-08-19T06:26:32.637Z,19.32
2018-08-19T06:27:44.188Z,19.37
2018-08-19T06:28:49.709Z,19.54
2018-08-19T06:29:55.743Z,19.72
2018-08-19T06:31:07.894Z,19.80
2018-08-19T06:32:13.209Z,19.81
2018-08-19T06:33:19.410Z,19.87
2018-08-19T06:34:26.091Z,19.89
2018-08-19T06:35:32.205Z,19.95
2018-08-19T06:36:38.388Z,20.01
2018-08-19T06:37:45.025Z,20.00
2018-08-19T06:38:51.157Z,19.92
2018-08-19T06:39:56.824Z,19.87
2018-08-19T06:41:02.903Z,19.99
2018-08-19T06:42:08.516Z,20.16
2018-08-19T06:43:19.636Z,20.35
2018-08-19T06:44:26.396Z,20.39
2018-08-19T06:45:32.168Z,20.10
2018-08-19T06:46:38.240Z,20.03
2018-08-19T06:47:43.608Z,20.12
2018-08-19T06:48:49.730Z,20.10
2018-08-19T06:49:55.820Z,20.08
2018-08-19T06:51:02.238Z,20.11
2018-08-19T06:52:08.309Z,20.18
2018-08-19T06:53:14.340Z,20.21
2018-08-19T06:54:21.048Z,20.18
2018-08-19T06:55:26.768Z,20.24
2018-08-19T06:56:33.697Z,20.31
2018-08-19T06:57:39.819Z,20.41
2018-08-19T06:58:45.908Z,20.38
2018-08-19T06:59:51.745Z,20.40
2018-08-19T07:00:57.692Z,20.42
2018-08-19T07:02:03.720Z,20.46
2018-08-19T07:03:10.176Z,20.60
2018-08-19T07:04:17.038Z,20.80
2018-08-19T07:05:24.122Z,20.83
2018-08-19T07:06:29.520Z,20.73
2018-08-19T07:07:35.240Z,20.73
2018-08-19T07:08:41.551Z,20.67
2018-08-19T07:09:48.540Z,20.48
2018-08-19T07:10:55.587Z,20.50
2018-08-19T07:12:02.655Z,20.63
2018-08-19T07:13:09.464Z,20.43
2018-08-19T07:14:16.164Z,20.49
2018-08-19T07:15:24.254Z,20.61
2018-08-19T07:16:31.103Z,20.69
2018-08-19T07:17:38.227Z,20.68
2018-08-19T07:18:45.020Z,20.76
2018-08-19T07:19:52.313Z,20.81
2018-08-19T07:21:00.940Z,20.74
2018-08-19T07:22:08.470Z,20.86
2018-08-19T07:23:18.109Z,21.02
2018-08-19T07:24:24.376Z,21.09
2018-08-19T07:25:31.065Z,21.18
2018-08-19T07:26:37.318Z,21.25
2018-08-19T07:27:45.205Z,21.24
2018-08-19T07:28:54.280Z,21.31
2018-08-19T07:30:00.798Z,21.54
2018-08-19T07:31:07.316Z,21.78
2018-08-19T07:32:15.263Z,21.83
2018-08-19T07:33:26.518Z,21.36
2018-08-19T07:34:33.212Z,21.30
2018-08-19T07:35:39.992Z,21.29
2018-08-19T07:36:46.693Z,21.37
2018-08-19T07:37:54.119Z,21.27
2018-08-19T07:39:00.820Z,21.31
2018-08-19T07:40:07.494Z,21.39
2018-08-19T07:41:13.637Z,21.46
2018-08-19T07:42:20.467Z,21.52
2018-08-19T07:43:27.287Z,21.53
2018-08-19T07:44:35.133Z,21.62
2018-08-19T07:45:41.511Z,21.74
2018-08-19T07:46:47.659Z,21.95
2018-08-19T07:47:53.796Z,21.89
2018-08-19T07:49:00.589Z,21.77
2018-08-19T07:50:06.968Z,21.81
2018-08-19T07:51:13.717Z,21.91
2018-08-19T07:52:21.693Z,21.88
2018-08-19T07:53:28.827Z,22.21
2018-08-19T07:54:35.727Z,22.30
2018-08-19T07:55:44.410Z,22.33
2018-08-19T07:56:51.102Z,22.24
2018-08-19T07:57:58.352Z,22.26
2018-08-19T07:59:04.558Z,22.35
2018-08-19T08:00:11.381Z,22.43
2018-08-19T08:01:17.802Z,22.58
2018-08-19T08:02:23.886Z,22.60
2018-08-19T08:03:31.038Z,22.86
2018-08-19T08:04:37.065Z,23.03
2018-08-19T08:05:47.760Z,23.23
2018-08-19T08:06:54.312Z,23.24
2018-08-19T08:08:00.697Z,23.10
2018-08-19T08:09:07.420Z,23.05
2018-08-19T08:10:14.630Z,23.07
2018-08-19T08:11:21.669Z,23.24
2018-08-19T08:12:27.776Z,23.37
2018-08-19T08:13:34.957Z,23.05
2018-08-19T08:14:42.974Z,22.87
2018-08-19T08:15:50.327Z,23.11
2018-08-19T08:16:56.809Z,23.17
2018-08-19T08:18:03.864Z,23.30
2018-08-19T08:19:10.580Z,23.49
2018-08-19T08:20:17.280Z,23.64
2018-08-19T08:21:23.165Z,23.56
2018-08-19T08:22:29.695Z,23.31
2018-08-19T08:23:35.644Z,23.34
2018-08-19T08:24:42.340Z,23.58
2018-08-19T08:25:48.268Z,23.20
2018-08-19T08:26:54.744Z,23.07
2018-08-19T08:28:01.427Z,23.00
2018-08-19T08:29:07.478Z,23.17
2018-08-19T08:30:14.415Z,23.42
2018-08-19T08:31:22.400Z,23.67
2018-08-19T08:32:29.409Z,23.97
2018-08-19T08:33:34.916Z,24.22
2018-08-19T08:34:41.820Z,24.12
2018-08-19T08:35:48.537Z,23.91
2018-08-19T08:37:02.604Z,24.00
2018-08-19T08:38:20.296Z,24.02
2018-08-19T08:44:10.085Z,24.22
2018-08-19T08:45:32.865Z,24.24
2018-08-19T08:46:52.857Z,24.43
2018-08-19T08:48:07.862Z,24.50
2018-08-19T08:49:20.000Z,24.45
2018-08-19T08:50:35.384Z,24.83
2018-08-19T08:51:48.586Z,24.56
2018-08-19T08:53:00.339Z,24.51
2018-08-19T08:54:17.331Z,24.73
2018-08-19T08:55:31.242Z,24.90
2018-08-19T08:56:46.867Z,25.10
2018-08-19T08:58:00.764Z,25.02
2018-08-19T08:59:17.486Z,24.51
2018-08-19T09:00:26.699Z,24.56
2018-08-19T09:01:34.568Z,24.64
2018-08-19T09:02:46.926Z,24.34
2018-08-19T09:04:00.331Z,24.26
2018-08-19T09:05:14.361Z,24.19
2018-08-19T09:06:27.960Z,24.53
2018-08-19T09:07:42.022Z,24.56
2018-08-19T09:08:55.759Z,24.31
2018-08-19T09:10:03.032Z,24.24
2018-08-19T09:11:09.469Z,24.42
2018-08-19T09:12:14.871Z,24.47
2018-08-19T09:13:40.844Z,24.71
2018-08-19T09:14:47.040Z,24.88
2018-08-19T09:15:53.130Z,25.20
2018-08-19T09:16:59.067Z,25.36
2018-08-19T09:18:04.844Z,25.50
2018-08-19T09:19:10.579Z,25.54
2018-08-19T09:20:16.418Z,25.47
2018-08-19T09:21:22.418Z,25.44
2018-08-19T09:22:29.075Z,25.43
2018-08-19T09:23:35.010Z,25.53
2018-08-19T09:24:41.098Z,25.39
2018-08-19T09:25:48.829Z,25.33
2018-08-19T09:26:55.145Z,25.65
2018-08-19T09:28:02.070Z,25.61
2018-08-19T09:29:09.019Z,25.26
2018-08-19T09:30:14.519Z,25.17
2018-08-19T09:31:21.220Z,25.19
2018-08-19T09:32:33.450Z,25.61
2018-08-19T09:33:41.520Z,25.66
2018-08-19T09:34:48.250Z,25.71
2018-08-19T09:35:55.261Z,25.81
2018-08-19T09:37:02.240Z,26.03
2018-08-19T09:38:14.022Z,25.88
2018-08-19T09:39:21.052Z,25.88
2018-08-19T09:40:31.638Z,25.99
2018-08-19T09:41:38.550Z,26.02
2018-08-19T09:42:54.695Z,26.00
2018-08-19T09:44:01.422Z,25.78
2018-08-19T09:45:08.254Z,25.78
2018-08-19T09:46:14.792Z,25.68
2018-08-19T09:47:20.382Z,25.77
2018-08-19T09:48:31.016Z,25.96
2018-08-19T09:49:39.002Z,26.28
2018-08-19T09:50:46.163Z,26.57
2018-08-19T09:51:52.497Z,26.57
2018-08-19T09:53:03.571Z,26.56
2018-08-19T09:54:18.959Z,26.65
2018-08-19T09:55:32.758Z,26.36
2018-08-19T09:56:48.873Z,25.83
2018-08-19T09:58:05.948Z,25.92
2018-08-19T09:59:20.486Z,26.18
2018-08-19T10:00:36.101Z,26.53
2018-08-19T10:01:46.389Z,26.05
2018-08-19T10:03:04.776Z,26.17
2018-08-19T10:04:23.982Z,26.41
2018-08-19T10:05:41.012Z,26.64
2018-08-19T10:06:54.558Z,26.46
2018-08-19T10:08:09.165Z,26.56
2018-08-19T10:09:24.744Z,26.51
2018-08-19T10:10:39.704Z,26.48
2018-08-19T10:11:56.018Z,26.82
2018-08-19T10:13:07.474Z,27.06
2018-08-19T10:14:23.291Z,27.27
2018-08-19T10:15:38.726Z,27.20
2018-08-19T10:16:53.395Z,27.14
2018-08-19T10:18:09.141Z,26.60
2018-08-19T10:19:22.960Z,26.39
2018-08-19T10:20:38.406Z,26.70
2018-08-19T10:21:52.316Z,26.75
2018-08-19T10:23:05.693Z,26.88
2018-08-19T10:24:20.410Z,26.96
2018-08-19T10:25:33.465Z,27.01
2018-08-19T10:26:43.396Z,26.97
2018-08-19T10:27:55.871Z,27.01
2018-08-19T10:29:08.368Z,27.05
2018-08-19T10:30:20.720Z,27.27
2018-08-19T10:31:33.856Z,27.50
2018-08-19T10:32:44.839Z,27.52
2018-08-19T10:33:55.856Z,27.55
2018-08-19T10:35:08.137Z,27.36
2018-08-19T10:36:19.348Z,26.73
2018-08-19T10:37:33.475Z,26.93
2018-08-19T10:38:49.486Z,27.07
2018-08-19T10:39:58.583Z,27.61
2018-08-19T10:41:17.083Z,27.70
2018-08-19T10:42:31.834Z,27.88
2018-08-19T10:43:46.283Z,28.01
2018-08-19T10:45:01.039Z,27.91
2018-08-19T10:46:13.238Z,27.98
2018-08-19T10:47:24.837Z,28.04
2018-08-19T10:48:36.555Z,28.04
2018-08-19T10:49:48.378Z,28.12
2018-08-19T10:50:56.788Z,28.12
2018-08-19T10:52:09.261Z,28.03
2018-08-19T10:53:21.136Z,28.06
2018-08-19T10:54:32.892Z,28.09
2018-08-19T10:55:51.191Z,28.20
2018-08-19T10:57:08.025Z,27.88
2018-08-19T10:58:24.844Z,28.11
2018-08-19T10:59:42.007Z,28.35
2018-08-19T11:00:55.701Z,28.53
2018-08-19T11:02:13.137Z,28.48
2018-08-19T11:03:29.894Z,28.46
2018-08-19T11:04:45.473Z,28.30
2018-08-19T11:05:56.102Z,28.45
2018-08-19T11:07:12.597Z,28.55
2018-08-19T11:08:25.285Z,28.67
2018-08-19T11:09:40.156Z,28.78
2018-08-19T11:10:49.911Z,28.71
2018-08-19T11:12:08.017Z,28.71
2018-08-19T11:13:23.850Z,28.69
2018-08-19T11:14:38.089Z,28.88
2018-08-19T11:15:53.484Z,28.98
2018-08-19T11:17:05.321Z,28.99
2018-08-19T11:18:18.809Z,28.79
2018-08-19T11:19:30.997Z,28.82
2018-08-19T11:20:45.454Z,28.87
2018-08-19T11:21:58.217Z,28.52
2018-08-19T11:23:19.841Z,28.36
2018-08-19T11:24:36.168Z,28.79
2018-08-19T11:25:49.571Z,28.73
2018-08-19T11:27:01.589Z,28.85
2018-08-19T11:28:13.262Z,28.56
2018-08-19T11:29:24.321Z,28.90
2018-08-19T11:30:35.791Z,29.00
2018-08-19T11:31:46.712Z,28.83
2018-08-19T11:32:57.884Z,28.85
2018-08-19T11:34:08.654Z,29.00
2018-08-19T11:35:24.184Z,28.87
2018-08-19T11:36:34.846Z,28.68
2018-08-19T11:37:47.594Z,28.45
2018-08-19T11:39:00.777Z,28.85
2018-08-19T11:40:15.234Z,29.12
2018-08-19T11:41:26.178Z,29.21
2018-08-19T11:42:39.911Z,29.12
2018-08-19T11:43:54.388Z,29.02
2018-08-19T11:45:10.028Z,29.15
2018-08-19T11:46:23.756Z,29.45
2018-08-19T11:47:38.412Z,29.59
2018-08-19T11:48:50.931Z,29.61
2018-08-19T11:50:03.353Z,29.42
2018-08-19T11:51:16.662Z,29.47
2018-08-19T11:52:25.615Z,29.63
2018-08-19T11:53:39.165Z,29.59
2018-08-19T11:54:53.833Z,29.54
2018-08-19T11:56:07.212Z,29.04
2018-08-19T11:57:17.638Z,28.96
2018-08-19T11:58:29.184Z,29.10
2018-08-19T11:59:42.277Z,29.17
2018-08-19T12:00:58.487Z,29.28
2018-08-19T12:02:12.873Z,29.56
2018-08-19T12:03:27.205Z,29.84
2018-08-19T12:04:39.724Z,29.89
2018-08-19T12:05:45.535Z,29.98
2018-08-19T12:06:51.250Z,30.11
2018-08-19T12:07:56.982Z,30.20
2018-08-19T12:09:02.462Z,30.04
2018-08-19T12:10:07.983Z,29.91
2018-08-19T12:11:13.842Z,30.03
2018-08-19T12:12:18.716Z,30.05
2018-08-19T12:13:24.483Z,30.08
2018-08-19T12:14:29.298Z,30.11
2018-08-19T12:15:34.959Z,30.15
2018-08-19T12:16:39.986Z,30.22
2018-08-19T12:17:45.790Z,30.08
2018-08-19T12:18:51.176Z,29.91
2018-08-19T12:19:56.872Z,29.54
2018-08-19T12:21:02.539Z,29.90
2018-08-19T12:22:08.224Z,29.51
2018-08-19T12:23:16.893Z,29.23
2018-08-19T12:24:22.613Z,29.71
2018-08-19T12:25:28.603Z,30.04
2018-08-19T12:26:33.927Z,29.70
2018-08-19T12:27:39.725Z,29.50
2018-08-19T12:28:45.705Z,29.88
2018-08-19T12:29:51.021Z,30.31
2018-08-19T12:30:56.814Z,30.52
2018-08-19T12:32:01.929Z,30.68
2018-08-19T12:33:07.075Z,30.79
2018-08-19T12:34:12.747Z,30.72
2018-08-19T12:35:18.610Z,30.76
2018-08-19T12:36:24.441Z,30.29
2018-08-19T12:37:30.281Z,30.00
2018-08-19T12:38:41.321Z,30.42
2018-08-19T12:39:46.647Z,30.39
2018-08-19T12:40:52.357Z,30.37
2018-08-19T12:41:57.845Z,30.49
2018-08-19T12:43:02.999Z,30.66
2018-08-19T12:44:08.121Z,30.90
2018-08-19T12:45:13.566Z,30.94
2018-08-19T12:46:19.348Z,30.98
2018-08-19T12:47:25.168Z,30.83
2018-08-19T12:48:30.483Z,30.74
2018-08-19T12:49:35.845Z,30.73
2018-08-19T12:50:40.670Z,30.69
2018-08-19T12:51:46.412Z,30.54
2018-08-19T12:52:52.108Z,30.73
2018-08-19T12:53:57.404Z,30.96
2018-08-19T12:55:03.132Z,30.90
2018-08-19T12:56:08.497Z,31.04
2018-08-19T12:57:14.286Z,30.65
2018-08-19T12:58:19.999Z,30.64
2018-08-19T12:59:25.443Z,31.02
2018-08-19T13:00:41.706Z,31.18
2018-08-19T13:01:47.971Z,31.14
2018-08-19T13:02:53.483Z,31.18
2018-08-19T13:03:58.921Z,31.16
2018-08-19T13:05:03.876Z,30.82
2018-08-19T13:06:09.383Z,31.04
2018-08-19T13:07:15.072Z,30.79
2018-08-19T13:08:26.716Z,30.92
2018-08-19T13:09:32.501Z,30.94
2018-08-19T13:10:37.976Z,31.01
2018-08-19T13:11:43.449Z,30.52
2018-08-19T13:12:49.053Z,30.32
2018-08-19T13:13:57.523Z,30.47
2018-08-19T13:15:04.642Z,30.73
2018-08-19T13:16:10.381Z,31.04
2018-08-19T13:17:16.200Z,30.78
2018-08-19T13:18:21.377Z,30.64
2018-08-19T13:19:26.873Z,30.92
2018-08-19T13:20:32.533Z,30.57
2018-08-19T13:21:39.240Z,30.99
2018-08-19T13:22:44.420Z,31.13
2018-08-19T13:23:50.158Z,30.85
2018-08-19T13:24:55.604Z,30.85
2018-08-19T13:26:01.343Z,30.83
2018-08-19T13:27:07.426Z,31.03
2018-08-19T13:28:13.168Z,31.30
2018-08-19T13:29:18.851Z,30.93
2018-08-19T13:30:24.536Z,30.83
2018-08-19T13:31:30.007Z,31.09
2018-08-19T13:32:37.499Z,31.29
2018-08-19T13:33:47.338Z,31.14
2018-08-19T13:34:53.168Z,31.44
2018-08-19T13:35:58.992Z,31.69
2018-08-19T13:37:04.065Z,31.74
2018-08-19T13:38:09.734Z,31.63
2018-08-19T13:39:15.753Z,31.94
2018-08-19T13:40:21.559Z,32.15
2018-08-19T13:41:27.468Z,31.77
2018-08-19T13:42:38.307Z,31.68
2018-08-19T13:43:43.993Z,31.86
2018-08-19T13:44:49.448Z,31.65
2018-08-19T13:45:57.832Z,31.40
2018-08-19T13:47:03.299Z,31.47
2018-08-19T13:48:09.046Z,31.94
2018-08-19T13:49:14.005Z,31.71
2018-08-19T13:50:19.623Z,32.01
2018-08-19T13:51:25.296Z,32.12
2018-08-19T13:52:30.287Z,32.13
2018-08-19T13:53:36.619Z,32.19
2018-08-19T13:54:41.697Z,32.25
2018-08-19T13:55:46.648Z,32.08
2018-08-19T13:56:52.448Z,32.23
2018-08-19T13:58:02.173Z,32.10
2018-08-19T13:59:12.494Z,32.05
2018-08-19T14:00:18.231Z,32.30
2018-08-19T14:01:24.082Z,32.47
2018-08-19T14:02:31.986Z,32.36
2018-08-19T14:03:37.791Z,32.42
2018-08-19T14:04:46.345Z,32.40
2018-08-19T14:05:52.099Z,32.20
2018-08-19T14:06:57.723Z,31.99
2018-08-19T14:08:03.589Z,32.01
2018-08-19T14:09:08.767Z,32.22
2018-08-19T14:10:14.200Z,32.11
2018-08-19T14:11:19.540Z,32.17
2018-08-19T14:12:25.212Z,32.23
2018-08-19T14:13:31.049Z,31.76
2018-08-19T14:14:36.853Z,31.22
2018-08-19T14:15:42.524Z,31.58
2018-08-19T14:16:48.243Z,31.74
2018-08-19T14:17:54.596Z,32.08
2018-08-19T14:19:00.435Z,32.09
2018-08-19T14:20:06.458Z,31.99
2018-08-19T14:21:12.355Z,32.19
2018-08-19T14:22:18.148Z,32.32
2018-08-19T14:23:23.853Z,32.18
2018-08-19T14:24:29.626Z,32.34
2018-08-19T14:25:41.259Z,32.41
2018-08-19T14:26:47.072Z,32.16
2018-08-19T14:27:52.788Z,32.34
2018-08-19T14:28:58.501Z,32.43
2018-08-19T14:30:06.390Z,32.65
2018-08-19T14:31:11.954Z,32.76
2018-08-19T14:32:16.667Z,32.39
2018-08-19T14:33:22.406Z,32.70
2018-08-19T14:34:28.222Z,32.54
2018-08-19T14:35:33.894Z,31.70
2018-08-19T14:36:39.614Z,32.02
2018-08-19T14:37:44.947Z,32.48